createdAt,value
2023-03-24T00:01:24.447Z,-3.55
2023-03-24T00:04:11.756Z,-3.57
2023-03-24T00:06:58.692Z,-3.56
2023-03-24T00:09:45.713Z,-3.55
2023-03-24T00:12:35.182Z,-3.56
2023-03-24T00:15:22.385Z,-3.67
2023-03-24T00:18:12.904Z,-3.57
2023-03-24T00:21:00.084Z,-3.66
2023-03-24T00:23:48.814Z,-3.58
2023-03-24T00:26:37.217Z,-3.59
2023-03-24T00:29:26.284Z,-3.64
2023-03-24T00:32:13.963Z,-3.60
2023-03-24T00:35:00.869Z,-3.59
2023-03-24T00:37:48.114Z,-3.59
2023-03-24T00:40:37.580Z,-3.73
2023-03-24T00:43:24.667Z,-3.60
2023-03-24T00:46:21.055Z,-3.69
2023-03-24T00:49:08.128Z,-3.60
2023-03-24T00:52:01.295Z,-3.60
2023-03-24T00:54:48.340Z,-3.61
2023-03-24T00:57:46.854Z,-3.60
2023-03-24T01:00:33.964Z,-3.61
2023-03-24T01:03:21.941Z,-3.72
2023-03-24T01:06:09.654Z,-3.61
2023-03-24T01:08:56.659Z,-3.60
2023-03-24T01:11:46.209Z,-3.60
2023-03-24T01:14:33.663Z,-3.61
2023-03-24T01:17:20.585Z,-3.59
2023-03-24T01:20:07.458Z,-3.59
2023-03-24T01:22:57.902Z,-3.60
2023-03-24T01:25:44.948Z,-3.60
2023-03-24T01:28:32.910Z,-3.59
2023-03-24T01:31:19.822Z,-3.59
2023-03-24T01:34:06.870Z,-3.58
2023-03-24T01:36:54.122Z,-3.87
2023-03-24T01:39:41.036Z,-3.58
2023-03-24T01:42:37.119Z,-3.58
2023-03-24T01:46:01.499Z,-3.57
2023-03-24T01:49:12.673Z,-3.56
2023-03-24T01:52:05.484Z,-3.56
2023-03-24T01:54:57.657Z,-3.55
2023-03-24T01:57:47.952Z,-3.55
2023-03-24T02:00:37.756Z,-3.53
2023-03-24T02:03:47.087Z,-3.53
2023-03-24T02:06:35.400Z,-3.53
2023-03-24T02:09:23.817Z,-3.51
2023-03-24T02:12:10.649Z,-3.50
2023-03-24T02:14:57.783Z,-3.53
2023-03-24T02:18:02.642Z,-3.48
2023-03-24T02:21:17.482Z,-3.48
2023-03-24T02:24:16.765Z,-3.46
2023-03-24T02:27:20.411Z,-3.45
2023-03-24T02:30:38.461Z,-3.45
2023-03-24T02:33:47.098Z,-3.45
2023-03-24T02:36:43.411Z,-3.44
2023-03-24T02:39:58.644Z,-3.43
2023-03-24T02:42:57.802Z,-3.42
2023-03-24T02:46:17.167Z,-3.42
2023-03-24T02:49:13.254Z,-3.42
2023-03-24T02:52:09.691Z,-3.43
2023-03-24T02:55:07.445Z,-3.41
2023-03-24T02:58:00.617Z,-3.43
2023-03-24T03:01:12.307Z,-3.49
2023-03-24T03:04:38.592Z,-3.44
2023-03-24T03:07:28.511Z,-3.38
2023-03-24T03:10:44.282Z,-3.37
2023-03-24T03:13:39.840Z,-3.36
2023-03-24T03:16:42.644Z,-3.81
2023-03-24T03:19:38.328Z,-3.34
2023-03-24T03:22:31.278Z,-3.34
2023-03-24T03:25:21.939Z,-3.45
2023-03-24T03:28:11.133Z,-3.31
2023-03-24T03:31:02.544Z,-3.53
2023-03-24T03:34:32.997Z,-3.29
2023-03-24T03:38:05.479Z,-3.27
2023-03-24T03:41:01.807Z,-3.26
2023-03-24T03:43:54.817Z,-3.24
2023-03-24T03:46:42.169Z,-3.39
2023-03-24T03:49:33.709Z,-3.24
2023-03-24T03:52:21.498Z,-3.23
2023-03-24T03:55:10.971Z,-3.37
2023-03-24T03:57:59.138Z,-3.21
2023-03-24T04:01:03.063Z,-3.20
2023-03-24T04:04:40.094Z,-3.19
2023-03-24T04:07:51.686Z,-3.18
2023-03-24T04:11:10.133Z,-3.17
2023-03-24T04:14:45.318Z,-3.18
2023-03-24T04:17:53.662Z,-3.14
2023-03-24T04:21:19.866Z,-3.14
2023-03-24T04:24:23.859Z,-3.13
2023-03-24T04:27:21.055Z,-3.11
2023-03-24T04:30:19.855Z,-3.10
2023-03-24T04:33:14.859Z,-3.19
2023-03-24T04:36:11.383Z,-3.07
2023-03-24T04:39:08.091Z,-3.39
2023-03-24T04:42:06.123Z,-3.11
2023-03-24T04:44:53.676Z,-3.14
2023-03-24T04:48:25.293Z,-3.02
2023-03-24T04:51:32.836Z,-3.28
2023-03-24T04:54:30.485Z,-3.00
2023-03-24T04:57:24.447Z,-3.01
2023-03-24T05:00:17.766Z,-2.97
2023-03-24T05:02:46.170Z,-2.95
2023-03-24T05:05:39.236Z,-3.02
2023-03-24T05:08:26.335Z,-2.99
2023-03-24T05:11:13.513Z,-3.20
2023-03-24T05:14:07.618Z,-2.89
2023-03-24T05:16:54.765Z,-2.87
2023-03-24T05:19:43.566Z,-2.86
2023-03-24T05:22:31.056Z,-3.30
2023-03-24T05:25:18.939Z,-2.82
2023-03-24T05:28:06.520Z,-2.87
2023-03-24T05:30:34.462Z,-2.86
2023-03-24T05:33:31.288Z,-2.79
2023-03-24T05:36:19.209Z,-2.77
2023-03-24T05:39:14.122Z,-2.74
2023-03-24T05:42:20.778Z,-2.76
2023-03-24T05:45:08.597Z,-2.72
2023-03-24T05:47:57.979Z,-2.76
2023-03-24T05:50:57.346Z,-2.67
2023-03-24T05:53:44.584Z,-2.64
2023-03-24T05:56:37.379Z,-2.63
2023-03-24T05:59:24.620Z,-2.59
2023-03-24T06:02:12.676Z,-2.93
2023-03-24T06:04:49.004Z,-2.62
2023-03-24T06:07:19.519Z,-2.57
2023-03-24T06:09:51.079Z,-2.52
2023-03-24T06:12:18.983Z,-2.50
2023-03-24T06:15:05.204Z,-2.49
2023-03-24T06:17:33.957Z,-2.46
2023-03-24T06:20:15.140Z,-2.44
2023-03-24T06:23:02.668Z,-2.43
2023-03-24T06:25:37.319Z,-2.44
2023-03-24T06:28:34.512Z,-2.38
2023-03-24T06:31:07.576Z,-2.35
2023-03-24T06:33:36.809Z,-2.32
2023-03-24T06:36:07.562Z,-2.31
2023-03-24T06:38:34.710Z,-2.30
2023-03-24T06:41:05.181Z,-2.27
2023-03-24T06:43:33.063Z,-2.26
2023-03-24T06:46:01.178Z,-2.23
2023-03-24T06:48:30.011Z,-2.37
2023-03-24T06:51:03.590Z,-2.20
2023-03-24T06:53:30.617Z,-2.21
2023-03-24T06:55:57.872Z,-2.18
2023-03-24T06:58:28.216Z,-2.31
2023-03-24T07:01:18.209Z,-2.18
2023-03-24T07:04:07.994Z,-2.12
2023-03-24T07:07:05.029Z,-2.29
2023-03-24T07:09:34.874Z,-2.08
2023-03-24T07:12:03.615Z,-2.08
2023-03-24T07:14:32.325Z,-2.06
2023-03-24T07:17:02.112Z,-2.03
2023-03-24T07:19:58.297Z,-2.05
2023-03-24T07:22:51.754Z,-1.99
2023-03-24T07:25:21.442Z,-1.98
2023-03-24T07:27:56.481Z,-1.95
2023-03-24T07:30:33.446Z,-2.00
2023-03-24T07:33:07.846Z,-1.97
2023-03-24T07:35:35.327Z,-1.89
2023-03-24T07:38:02.875Z,-2.14
2023-03-24T07:40:31.315Z,-2.24
2023-03-24T07:43:07.779Z,-1.81
2023-03-24T07:45:56.329Z,-1.82
2023-03-24T07:48:27.172Z,-1.77
2023-03-24T07:50:54.275Z,-1.74
2023-03-24T07:53:45.855Z,-1.71
2023-03-24T07:56:16.005Z,-1.69
2023-03-24T07:58:51.786Z,-1.67
2023-03-24T08:01:31.974Z,-1.63
2023-03-24T08:04:03.753Z,-1.60
2023-03-24T08:07:08.487Z,-1.56
2023-03-24T08:09:35.484Z,-1.53
2023-03-24T08:12:13.527Z,-1.50
2023-03-24T08:14:47.108Z,-1.46
2023-03-24T08:17:14.022Z,-1.43
2023-03-24T08:19:52.433Z,-1.41
2023-03-24T08:22:27.036Z,-1.39
2023-03-24T08:24:53.883Z,-1.34
2023-03-24T08:27:20.875Z,-1.31
2023-03-24T08:29:48.194Z,-1.37
2023-03-24T08:32:15.391Z,-1.27
2023-03-24T08:34:42.318Z,-1.23
2023-03-24T08:37:09.693Z,-1.22
2023-03-24T08:39:36.622Z,-1.16
2023-03-24T08:42:03.864Z,-1.15
2023-03-24T08:44:32.928Z,-1.13
2023-03-24T08:47:03.787Z,-1.11
2023-03-24T08:49:30.703Z,-1.09
2023-03-24T08:51:58.242Z,-1.08
2023-03-24T08:54:26.269Z,-1.45
2023-03-24T08:56:53.515Z,-1.16
2023-03-24T08:59:20.571Z,-0.95
2023-03-24T09:01:47.495Z,-0.94
2023-03-24T09:04:14.581Z,-0.90
2023-03-24T09:06:41.805Z,-0.87
2023-03-24T09:09:08.724Z,-0.83
2023-03-24T09:11:38.517Z,-0.81
2023-03-24T09:14:05.906Z,-0.77
2023-03-24T09:16:33.144Z,-0.88
2023-03-24T09:19:00.103Z,-0.95
2023-03-24T09:21:27.513Z,-0.67
2023-03-24T09:23:54.343Z,-0.63
2023-03-24T09:26:23.094Z,-0.65
2023-03-24T09:28:50.079Z,-0.62
2023-03-24T09:31:17.081Z,-0.64
2023-03-24T09:33:43.982Z,-0.57
2023-03-24T09:36:11.365Z,-0.56
2023-03-24T09:38:38.369Z,-0.53
2023-03-24T09:41:18.374Z,-0.52
2023-03-24T09:43:56.793Z,-0.49
2023-03-24T09:46:26.589Z,-0.47
2023-03-24T09:48:56.266Z,-0.45
2023-03-24T09:51:28.000Z,-0.43
2023-03-24T09:54:10.287Z,-0.42
2023-03-24T09:56:40.084Z,-0.40
2023-03-24T09:59:11.199Z,-0.41
2023-03-24T10:01:38.338Z,-0.66
2023-03-24T10:04:14.925Z,-0.45
2023-03-24T10:06:42.576Z,-0.37
2023-03-24T10:09:32.085Z,-0.36
2023-03-24T10:12:39.798Z,-0.34
2023-03-24T10:18:11.195Z,-0.31
2023-03-24T10:21:01.413Z,-0.29
2023-03-24T10:23:31.080Z,-0.26
2023-03-24T10:26:14.240Z,-0.25
2023-03-24T10:28:41.462Z,-0.22
2023-03-24T10:31:16.168Z,-0.22
2023-03-24T10:33:45.395Z,-0.49
2023-03-24T10:36:18.495Z,-0.19
2023-03-24T10:38:46.458Z,-0.17
2023-03-24T10:41:35.105Z,-0.14
2023-03-24T10:44:02.457Z,-0.11
2023-03-24T10:46:31.550Z,-0.10
2023-03-24T10:49:10.288Z,-0.04
2023-03-24T10:51:37.818Z,-0.04
2023-03-24T10:54:28.114Z,-0.34
2023-03-24T10:56:58.099Z,0.05
2023-03-24T10:59:37.507Z,0.02
2023-03-24T11:02:10.354Z,0.12
2023-03-24T11:04:39.943Z,0.15
2023-03-24T11:07:32.784Z,0.17
2023-03-24T11:10:26.843Z,0.21
2023-03-24T11:13:13.615Z,0.24
2023-03-24T11:16:13.851Z,0.28
2023-03-24T11:19:29.766Z,0.31
2023-03-24T11:22:22.706Z,0.34
2023-03-24T11:25:14.685Z,0.38
2023-03-24T11:28:02.897Z,0.40
2023-03-24T11:31:06.020Z,0.43
2023-03-24T11:33:56.653Z,0.46
2023-03-24T11:36:58.806Z,0.48
2023-03-24T11:39:48.978Z,0.51
2023-03-24T11:42:37.246Z,0.21
2023-03-24T11:45:41.781Z,0.57
2023-03-24T11:48:49.834Z,0.60
2023-03-24T11:51:48.275Z,0.62
2023-03-24T11:54:38.331Z,0.65
2023-03-24T11:57:34.212Z,0.66
2023-03-24T12:00:48.328Z,0.69
2023-03-24T12:03:50.634Z,0.70
2023-03-24T12:07:15.233Z,0.73
2023-03-24T12:10:08.852Z,0.75
2023-03-24T12:13:05.821Z,0.73
2023-03-24T12:16:02.148Z,0.75
2023-03-24T12:19:16.837Z,0.82
2023-03-24T12:22:15.666Z,0.86
2023-03-24T12:25:39.631Z,0.89
2023-03-24T12:28:36.996Z,0.91
2023-03-24T12:31:51.737Z,0.85
2023-03-24T12:35:03.625Z,0.95
2023-03-24T12:37:59.574Z,0.97
2023-03-24T12:41:13.796Z,0.97
2023-03-24T12:44:25.187Z,0.98
2023-03-24T12:47:21.084Z,1.00
2023-03-24T12:50:44.991Z,1.02
2023-03-24T12:54:11.482Z,1.03
2023-03-24T12:57:04.722Z,1.03
2023-03-24T12:59:57.634Z,1.02
2023-03-24T13:02:53.672Z,1.03
2023-03-24T13:05:53.436Z,1.05
2023-03-24T13:08:44.313Z,1.05
2023-03-24T13:11:33.824Z,1.00
2023-03-24T13:14:26.685Z,1.03
2023-03-24T13:17:20.706Z,1.06
2023-03-24T13:20:11.085Z,0.94
2023-03-24T13:22:59.075Z,1.09
2023-03-24T13:26:05.719Z,1.08
2023-03-24T13:29:21.619Z,1.08
2023-03-24T13:32:18.673Z,1.06
2023-03-24T13:35:21.315Z,1.04
2023-03-24T13:38:12.910Z,1.04
2023-03-24T13:41:01.330Z,1.05
2023-03-24T13:43:53.438Z,1.04
2023-03-24T13:46:40.412Z,1.06
2023-03-24T13:49:34.031Z,1.05
2023-03-24T13:52:33.956Z,1.06
2023-03-24T13:55:27.996Z,0.77
2023-03-24T13:58:33.042Z,1.10
2023-03-24T14:01:08.996Z,1.10
2023-03-24T14:03:41.024Z,0.92
2023-03-24T14:06:18.423Z,1.09
2023-03-24T14:08:52.377Z,1.09
2023-03-24T14:11:38.257Z,1.08
2023-03-24T14:14:06.530Z,1.08
2023-03-24T14:16:33.456Z,0.98
2023-03-24T14:19:18.663Z,1.07
2023-03-24T14:21:52.673Z,1.05
2023-03-24T14:24:29.103Z,1.06
2023-03-24T14:26:56.612Z,1.07
2023-03-24T14:29:32.613Z,1.05
2023-03-24T14:32:17.246Z,1.05
2023-03-24T14:34:57.152Z,1.03
2023-03-24T14:37:25.807Z,0.95
2023-03-24T14:39:53.853Z,1.03
2023-03-24T14:42:32.706Z,1.02
2023-03-24T14:45:51.177Z,0.99
2023-03-24T14:48:36.581Z,0.97
2023-03-24T14:51:12.985Z,0.94
2023-03-24T14:53:41.616Z,0.76
2023-03-24T14:56:16.322Z,0.88
2023-03-24T14:58:48.083Z,0.85
2023-03-24T15:01:17.365Z,0.79
2023-03-24T15:04:09.218Z,0.81
2023-03-24T15:06:47.652Z,0.79
2023-03-24T15:09:18.624Z,0.76
2023-03-24T15:11:48.141Z,0.75
2023-03-24T15:14:21.457Z,0.69
2023-03-24T15:17:18.356Z,0.73
2023-03-24T15:19:46.842Z,0.69
2023-03-24T15:22:14.017Z,0.70
2023-03-24T15:24:42.536Z,0.68
2023-03-24T15:27:23.565Z,0.66
2023-03-24T15:30:04.859Z,0.63
2023-03-24T15:32:33.026Z,0.66
2023-03-24T15:35:08.874Z,0.57
2023-03-24T15:37:41.339Z,0.63
2023-03-24T15:40:31.703Z,0.61
2023-03-24T15:43:04.605Z,0.58
2023-03-24T15:45:35.005Z,0.52
2023-03-24T15:48:13.171Z,0.50
2023-03-24T15:50:53.828Z,0.50
2023-03-24T15:53:25.185Z,0.46
2023-03-24T15:56:26.156Z,0.44
2023-03-24T15:58:57.669Z,0.41
2023-03-24T16:01:27.759Z,0.39
2023-03-24T16:03:55.296Z,0.28
2023-03-24T16:06:30.159Z,0.12
2023-03-24T16:09:02.154Z,0.17
2023-03-24T16:11:29.704Z,0.27
2023-03-24T16:13:57.916Z,0.25
2023-03-24T16:16:29.141Z,0.18
2023-03-24T16:18:58.106Z,0.17
2023-03-24T16:21:28.185Z,0.13
2023-03-24T16:23:57.149Z,0.11
2023-03-24T16:26:26.569Z,0.05
2023-03-24T16:28:54.614Z,0.05
2023-03-24T16:31:36.432Z,0.02
2023-03-24T16:34:03.413Z,-0.01
2023-03-24T16:36:30.425Z,-0.05
2023-03-24T16:38:59.744Z,-0.34
2023-03-24T16:41:27.544Z,-0.23
2023-03-24T16:43:54.891Z,-0.16
2023-03-24T16:46:33.144Z,-0.29
2023-03-24T16:49:04.145Z,-0.20
2023-03-24T16:51:31.842Z,-0.22
2023-03-24T16:53:59.150Z,-0.25
2023-03-24T16:56:26.730Z,-0.30
2023-03-24T16:58:54.594Z,-0.34
2023-03-24T17:01:33.857Z,-0.32
2023-03-24T17:04:03.298Z,-0.35
2023-03-24T17:06:33.059Z,-0.38
2023-03-24T17:09:00.001Z,-0.40
2023-03-24T17:11:32.994Z,-0.49
2023-03-24T17:14:04.665Z,-0.47
2023-03-24T17:16:36.964Z,-0.53
2023-03-24T17:19:07.542Z,-0.64
2023-03-24T17:21:38.539Z,-0.58
2023-03-24T17:24:10.954Z,-0.74
2023-03-24T17:26:38.888Z,-0.64
2023-03-24T17:29:06.250Z,-0.67
2023-03-24T17:31:33.981Z,-0.70
2023-03-24T17:34:08.530Z,-0.72
2023-03-24T17:36:49.891Z,-1.15
2023-03-24T17:39:17.960Z,-0.78
2023-03-24T17:41:45.204Z,-1.01
2023-03-24T17:44:12.434Z,-0.82
2023-03-24T17:46:39.501Z,-0.84
2023-03-24T17:49:06.816Z,-1.20
2023-03-24T17:51:34.017Z,-0.95
2023-03-24T17:54:00.994Z,-1.00
2023-03-24T17:56:27.901Z,-0.94
2023-03-24T17:58:56.414Z,-0.97
2023-03-24T18:01:23.833Z,-0.99
2023-03-24T18:03:50.976Z,-1.02
2023-03-24T18:06:18.251Z,-1.06
2023-03-24T18:08:45.300Z,-1.09
2023-03-24T18:11:14.528Z,-1.11
2023-03-24T18:13:42.727Z,-1.41
2023-03-24T18:16:20.627Z,-1.17
2023-03-24T18:18:51.213Z,-1.20
2023-03-24T18:21:19.281Z,-1.23
2023-03-24T18:23:46.712Z,-1.27
2023-03-24T18:26:14.987Z,-1.28
2023-03-24T18:28:42.869Z,-1.39
2023-03-24T18:31:12.797Z,-1.34
2023-03-24T18:33:42.923Z,-1.36
2023-03-24T18:36:10.670Z,-1.39
2023-03-24T18:38:38.501Z,-1.40
2023-03-24T18:41:07.791Z,-1.43
2023-03-24T18:43:37.773Z,-1.46
2023-03-24T18:46:09.304Z,-1.51
2023-03-24T18:48:37.979Z,-1.52
2023-03-24T18:51:05.972Z,-1.53
2023-03-24T18:53:34.605Z,-1.57
2023-03-24T18:56:02.517Z,-1.77
2023-03-24T18:58:30.046Z,-1.75
2023-03-24T19:00:58.388Z,-1.64
2023-03-24T19:03:27.203Z,-1.73
2023-03-24T19:05:54.299Z,-1.72
2023-03-24T19:08:22.088Z,-1.71
2023-03-24T19:10:49.842Z,-1.76
2023-03-24T19:13:17.128Z,-1.76
2023-03-24T19:15:48.902Z,-1.79
2023-03-24T19:18:16.131Z,-1.83
2023-03-24T19:20:43.269Z,-1.85
2023-03-24T19:23:10.514Z,-1.85
2023-03-24T19:25:37.564Z,-2.25
2023-03-24T19:28:04.727Z,-1.91
2023-03-24T19:30:31.738Z,-1.96
2023-03-24T19:32:58.629Z,-1.94
2023-03-24T19:35:26.171Z,-1.97
2023-03-24T19:37:53.688Z,-2.03
2023-03-24T19:40:20.978Z,-2.21
2023-03-24T19:42:48.332Z,-2.14
2023-03-24T19:45:17.355Z,-2.29
2023-03-24T19:47:46.245Z,-2.08
2023-03-24T19:50:15.614Z,-2.15
2023-03-24T19:52:48.805Z,-2.13
2023-03-24T19:55:15.962Z,-2.25
2023-03-24T19:57:42.998Z,-2.19
2023-03-24T20:00:14.506Z,-2.24
2023-03-24T20:02:41.779Z,-2.23
2023-03-24T20:05:09.977Z,-2.25
2023-03-24T20:07:37.531Z,-2.27
2023-03-24T20:10:04.874Z,-2.43
2023-03-24T20:12:32.289Z,-2.51
2023-03-24T20:14:59.391Z,-2.33
2023-03-24T20:17:28.690Z,-2.39
2023-03-24T20:19:56.062Z,-2.37
2023-03-24T20:22:23.160Z,-2.39
2023-03-24T20:24:50.322Z,-2.40
2023-03-24T20:27:17.337Z,-2.43
2023-03-24T20:29:45.993Z,-2.46
2023-03-24T20:32:13.761Z,-2.70
2023-03-24T20:34:40.886Z,-2.51
2023-03-24T20:37:08.481Z,-2.57
2023-03-24T20:39:35.478Z,-2.56
2023-03-24T20:42:02.588Z,-2.59
2023-03-24T20:44:29.648Z,-2.91
2023-03-24T20:47:00.775Z,-2.66
2023-03-24T20:49:27.960Z,-2.68
2023-03-24T20:51:54.878Z,-2.70
2023-03-24T20:54:21.924Z,-2.73
2023-03-24T20:56:52.544Z,-2.77
2023-03-24T20:59:19.796Z,-2.79
2023-03-24T21:01:48.666Z,-2.82
2023-03-24T21:04:17.728Z,-2.85
2023-03-24T21:06:45.026Z,-2.88
2023-03-24T21:09:13.236Z,-2.91
2023-03-24T21:11:40.415Z,-2.94
2023-03-24T21:14:07.638Z,-2.97
2023-03-24T21:16:37.506Z,-3.01
2023-03-24T21:19:04.963Z,-3.04
2023-03-24T21:21:32.417Z,-3.09
2023-03-24T21:24:00.565Z,-3.11
2023-03-24T21:26:27.808Z,-3.13
2023-03-24T21:28:54.750Z,-3.20
2023-03-24T21:31:23.402Z,-3.21
2023-03-24T21:33:50.952Z,-3.29
2023-03-24T21:36:18.646Z,-3.27
2023-03-24T21:38:49.525Z,-3.33
2023-03-24T21:41:17.719Z,-3.34
2023-03-24T21:43:46.905Z,-3.38
2023-03-24T21:46:21.016Z,-3.41
2023-03-24T21:48:51.469Z,-3.44
2023-03-24T21:51:24.169Z,-3.47
2023-03-24T21:53:52.384Z,-3.50
2023-03-24T21:56:20.300Z,-3.55
2023-03-24T21:58:47.617Z,-3.58
2023-03-24T22:01:15.355Z,-3.61
2023-03-24T22:03:42.196Z,-3.65
2023-03-24T22:06:12.132Z,-3.68
2023-03-24T22:08:43.441Z,-3.79
2023-03-24T22:11:11.018Z,-3.75
2023-03-24T22:13:39.345Z,-3.79
2023-03-24T22:16:07.188Z,-3.81
2023-03-24T22:18:34.931Z,-3.85
2023-03-24T22:21:06.927Z,-3.93
2023-03-24T22:23:36.800Z,-3.93
2023-03-24T22:26:16.766Z,-3.95
2023-03-24T22:28:44.307Z,-3.99
2023-03-24T22:31:13.908Z,-4.01
2023-03-24T22:33:41.213Z,-4.04
2023-03-24T22:36:09.225Z,-4.08
2023-03-24T22:38:36.180Z,-4.15
2023-03-24T22:41:08.308Z,-4.61
2023-03-24T22:43:36.622Z,-4.18
2023-03-24T22:46:04.005Z,-4.23
2023-03-24T22:48:31.338Z,-4.76
2023-03-24T22:50:58.649Z,-4.28
2023-03-24T22:53:25.922Z,-4.45
2023-03-24T22:55:53.275Z,-4.35
2023-03-24T22:58:20.594Z,-4.38
2023-03-24T23:00:49.543Z,-4.41
2023-03-24T23:03:16.697Z,-4.47
2023-03-24T23:05:46.023Z,-4.48
2023-03-24T23:08:15.428Z,-4.80
2023-03-24T23:10:44.803Z,-4.55
2023-03-24T23:13:12.613Z,-4.58
2023-03-24T23:15:42.516Z,-4.61
2023-03-24T23:18:10.486Z,-4.65
2023-03-24T23:20:37.732Z,-4.67
2023-03-24T23:23:06.753Z,-5.00
2023-03-24T23:25:44.497Z,-4.74
2023-03-24T23:28:12.877Z,-4.77
2023-03-24T23:30:40.628Z,-4.80
2023-03-24T23:33:07.998Z,-5.35
2023-03-24T23:35:37.494Z,-5.13
2023-03-24T23:38:06.787Z,-5.10
2023-03-24T23:40:33.779Z,-4.91
2023-03-24T23:43:02.219Z,-4.95
2023-03-24T23:45:29.215Z,-4.97
2023-03-24T23:47:56.865Z,-4.98
2023-03-24T23:50:23.944Z,-5.09
2023-03-24T23:52:50.913Z,-5.04
2023-03-24T23:55:18.429Z,-5.08
2023-03-24T23:57:46.373Z,-5.07
